Time;durP1;ratioP1;P1;durP2;ratioP2;P2;SDS_P1;SDS_P2;PMS_P1;PMS_P2;Temp;Humidity;BMP_temperature;BMP_pressure;BME280_temperature;BME280_humidity;BME280_pressure;Samples;Min_cycle;Max_cycle;Signal;HPM_P1;HPM_P2
2020/12/12 00:02:05;;;;;;;84.90;32.30;;;3.30;99.90;;;;;;5028609;28;20480;-70
2020/12/12 00:04:32;;;;;;;68.87;29.50;;;3.30;99.90;;;;;;5031570;28;20998;-71
2020/12/12 00:06:59;;;;;;;84.43;33.77;;;3.30;99.90;;;;;;5031143;28;20512;-71
2020/12/12 00:09:26;;;;;;;80.97;30.20;;;3.30;99.90;;;;;;5028712;28;20456;-71
2020/12/12 00:11:52;;;;;;;72.80;30.87;;;3.30;99.90;;;;;;5029506;28;20477;-71
2020/12/12 00:14:19;;;;;;;81.43;30.80;;;3.30;99.90;;;;;;5029678;28;20466;-71
2020/12/12 00:16:46;;;;;;;71.03;27.87;;;3.30;99.90;;;;;;5020539;28;20469;-71
2020/12/12 00:19:12;;;;;;;68.60;29.50;;;3.30;99.90;;;;;;5020695;28;20824;-71
2020/12/12 00:21:39;;;;;;;78.53;31.83;;;3.30;99.90;;;;;;5019792;28;20437;-72
2020/12/12 00:24:05;;;;;;;86.63;34.23;;;3.30;99.90;;;;;;5020630;28;20484;-70
2020/12/12 00:26:32;;;;;;;93.37;31.60;;;3.20;99.90;;;;;;5020489;28;20513;-72
2020/12/12 00:28:58;;;;;;;70.70;27.73;;;3.20;99.90;;;;;;5020730;28;20512;-72
2020/12/12 00:31:24;;;;;;;72.83;31.50;;;3.20;99.90;;;;;;5020280;28;20511;-71
2020/12/12 00:33:52;;;;;;;61.17;29.23;;;3.20;99.90;;;;;;5020219;28;20496;-71
2020/12/12 00:36:18;;;;;;;73.23;30.93;;;3.20;99.90;;;;;;5019867;28;20515;-70
2020/12/12 00:38:45;;;;;;;72.33;28.60;;;3.20;99.90;;;;;;5019710;28;20520;-71
2020/12/12 00:41:11;;;;;;;63.80;29.40;;;3.20;99.90;;;;;;5019720;28;20496;-72
2020/12/12 00:43:37;;;;;;;74.90;30.10;;;3.20;99.90;;;;;;5019801;28;20536;-71
2020/12/12 00:46:04;;;;;;;66.93;27.33;;;3.20;99.90;;;;;;5019989;28;20473;-71
2020/12/12 00:48:30;;;;;;;67.50;30.43;;;3.20;99.90;;;;;;5020583;28;20483;-71
2020/12/12 00:50:58;;;;;;;72.77;28.53;;;3.20;99.90;;;;;;5020972;28;20465;-72
2020/12/12 00:53:24;;;;;;;83.43;30.37;;;3.10;99.90;;;;;;5020867;28;20509;-72
2020/12/12 00:55:53;;;;;;;72.53;31.70;;;3.10;99.90;;;;;;5019929;28;20463;-72
2020/12/12 00:58:19;;;;;;;62.60;29.93;;;3.20;99.90;;;;;;5021041;28;20453;-73
2020/12/12 01:00:46;;;;;;;84.40;32.23;;;3.10;99.90;;;;;;5020161;28;20436;-71
2020/12/12 01:03:12;;;;;;;71.53;26.20;;;3.10;99.90;;;;;;5020268;28;20549;-71
2020/12/12 01:05:39;;;;;;;77.17;29.03;;;3.10;99.90;;;;;;5019648;28;20453;-71
2020/12/12 01:08:07;;;;;;;64.73;28.30;;;3.10;99.90;;;;;;5022755;28;20476;-71
2020/12/12 01:10:33;;;;;;;82.10;28.87;;;3.10;99.90;;;;;;5023150;28;20489;-70
2020/12/12 01:13:00;;;;;;;70.27;29.37;;;3.00;99.90;;;;;;5023432;28;20964;-71
2020/12/12 01:15:26;;;;;;;69.53;28.87;;;3.00;99.90;;;;;;5023604;28;20476;-71
2020/12/12 01:17:53;;;;;;;75.17;28.70;;;3.00;99.90;;;;;;5023295;28;20449;-71
2020/12/12 01:20:19;;;;;;;70.50;28.60;;;2.90;99.90;;;;;;5023952;28;20452;-72
2020/12/12 01:22:46;;;;;;;80.43;30.83;;;3.00;99.90;;;;;;5023152;28;20540;-71
2020/12/12 01:25:14;;;;;;;72.43;26.30;;;3.00;99.90;;;;;;5023043;28;20444;-71
2020/12/12 01:27:40;;;;;;;71.23;31.47;;;3.00;99.90;;;;;;5023229;28;20511;-71
2020/12/12 01:30:06;;;;;;;73.17;29.33;;;3.00;99.90;;;;;;5023318;28;20473;-72
2020/12/12 01:32:33;;;;;;;76.97;30.60;;;2.90;99.90;;;;;;5021954;28;20526;-72
2020/12/12 01:34:59;;;;;;;92.97;33.07;;;2.90;99.90;;;;;;5022744;28;20978;-72
2020/12/12 01:37:26;;;;;;;61.93;29.27;;;2.90;99.90;;;;;;5027003;28;20441;-72
2020/12/12 01:39:52;;;;;;;70.20;28.97;;;2.90;99.90;;;;;;5024224;28;20449;-72
2020/12/12 01:42:20;;;;;;;74.77;29.53;;;2.90;99.90;;;;;;5023008;28;20499;-71
2020/12/12 01:44:46;;;;;;;66.17;29.27;;;2.90;99.90;;;;;;5023577;28;20445;-72
2020/12/12 01:47:13;;;;;;;70.53;27.93;;;2.90;99.90;;;;;;5023974;28;20921;-71
2020/12/12 01:49:39;;;;;;;70.70;29.80;;;2.90;99.90;;;;;;5023815;28;20465;-71
2020/12/12 01:52:06;;;;;;;78.47;31.43;;;2.90;99.90;;;;;;5023593;28;20496;-71
2020/12/12 01:54:34;;;;;;;83.30;32.33;;;2.80;99.90;;;;;;5023654;28;20492;-72
2020/12/12 01:57:03;;;;;;;76.67;30.20;;;2.90;99.90;;;;;;5023752;28;20956;-71
2020/12/12 01:59:31;;;;;;;77.03;31.73;;;2.90;99.90;;;;;;5023978;28;20464;-71
2020/12/12 02:02:01;;;;;;;71.93;31.10;;;2.80;99.90;;;;;;5023808;28;20437;-72
2020/12/12 02:04:29;;;;;;;74.33;28.17;;;2.80;99.90;;;;;;5022714;28;20461;-72
2020/12/12 02:06:56;;;;;;;79.87;28.50;;;2.90;99.90;;;;;;5022954;28;20523;-71
2020/12/12 02:09:23;;;;;;;69.07;29.30;;;2.80;99.90;;;;;;5024161;28;20449;-71
2020/12/12 02:11:50;;;;;;;60.23;25.90;;;2.80;99.90;;;;;;5023985;28;20619;-72
2020/12/12 02:14:16;;;;;;;82.10;30.47;;;2.80;99.90;;;;;;5023863;28;20964;-71
2020/12/12 02:16:54;;;;;;;71.07;28.10;;;2.80;99.90;;;;;;5024679;28;20833;-72
2020/12/12 02:19:21;;;;;;;68.23;28.63;;;2.80;99.90;;;;;;5024713;28;20495;-71
2020/12/12 02:21:55;;;;;;;56.23;27.63;;;2.70;99.90;;;;;;5023804;28;20441;-71
2020/12/12 02:24:22;;;;;;;74.13;28.17;;;2.70;99.90;;;;;;5024339;28;20441;-71
2020/12/12 02:26:48;;;;;;;72.53;28.40;;;2.70;99.90;;;;;;5024048;28;20461;-71
2020/12/12 02:29:16;;;;;;;67.87;29.20;;;2.70;99.90;;;;;;5024356;28;20464;-72
2020/12/12 02:31:42;;;;;;;55.47;27.33;;;2.70;99.90;;;;;;5024430;28;20949;-72
2020/12/12 02:34:09;;;;;;;78.53;29.23;;;2.70;99.90;;;;;;5023512;28;20504;-71
2020/12/12 02:36:37;;;;;;;66.57;29.13;;;2.70;99.90;;;;;;5024414;28;20488;-70
2020/12/12 02:39:07;;;;;;;73.33;28.37;;;2.70;99.90;;;;;;5023946;28;20444;-72
2020/12/12 02:41:34;;;;;;;65.83;29.27;;;2.60;99.90;;;;;;5023757;28;20477;-71
2020/12/12 02:44:01;;;;;;;64.33;27.80;;;2.60;99.90;;;;;;5023809;28;20497;-71
2020/12/12 02:46:27;;;;;;;67.40;29.73;;;2.60;99.90;;;;;;5029898;28;20511;-72
2020/12/12 02:48:54;;;;;;;79.13;30.27;;;2.60;99.90;;;;;;5030780;28;20492;-71
2020/12/12 02:51:21;;;;;;;84.63;30.60;;;2.60;99.90;;;;;;5023805;28;20491;-71
2020/12/12 02:53:47;;;;;;;60.40;27.77;;;2.60;99.90;;;;;;5022884;28;20492;-72
2020/12/12 02:56:16;;;;;;;72.17;27.47;;;2.60;99.90;;;;;;5022532;28;20473;-71
2020/12/12 02:58:42;;;;;;;80.13;27.60;;;2.60;99.90;;;;;;5021927;28;20451;-71
2020/12/12 03:01:09;;;;;;;77.77;29.27;;;2.60;99.90;;;;;;5022932;28;20468;-71
2020/12/12 03:03:35;;;;;;;70.50;29.53;;;2.60;99.90;;;;;;5022522;28;20834;-70
2020/12/12 03:06:02;;;;;;;63.70;30.53;;;2.60;99.90;;;;;;5022558;28;20487;-72
2020/12/12 03:08:29;;;;;;;66.27;28.87;;;2.60;99.90;;;;;;5021812;28;20487;-71
2020/12/12 03:10:56;;;;;;;71.13;29.80;;;2.60;99.90;;;;;;5021712;28;21024;-72
2020/12/12 03:13:23;;;;;;;63.20;29.23;;;2.60;99.90;;;;;;5022816;28;20619;-72
2020/12/12 03:15:49;;;;;;;63.90;27.23;;;2.60;99.90;;;;;;5022961;28;20448;-73
2020/12/12 03:18:16;;;;;;;62.43;27.50;;;2.60;99.90;;;;;;5021159;28;20468;-71
2020/12/12 03:20:42;;;;;;;66.17;27.07;;;2.60;99.90;;;;;;5021750;28;20527;-72
2020/12/12 03:23:11;;;;;;;64.63;31.30;;;2.60;99.90;;;;;;5021207;28;20476;-72
2020/12/12 03:25:38;;;;;;;64.10;28.60;;;2.60;99.90;;;;;;5021310;28;20918;-72
2020/12/12 03:28:04;;;;;;;62.03;26.07;;;2.60;99.90;;;;;;5040814;22;20544;-72
2020/12/12 03:30:31;;;;;;;71.40;29.13;;;2.60;99.90;;;;;;5058786;22;20495;-72
2020/12/12 03:32:58;;;;;;;60.07;27.73;;;2.60;99.90;;;;;;5041422;28;20515;-73
2020/12/12 03:35:27;;;;;;;71.67;27.97;;;2.60;99.90;;;;;;5041731;28;20952;-72
2020/12/12 03:37:54;;;;;;;57.17;27.50;;;2.60;99.90;;;;;;5041547;28;20451;-71
2020/12/12 03:40:23;;;;;;;57.43;25.80;;;2.60;99.90;;;;;;5040986;28;20516;-71
2020/12/12 03:42:50;;;;;;;56.57;27.40;;;2.60;99.90;;;;;;5041446;28;20452;-72
2020/12/12 03:45:17;;;;;;;57.87;24.90;;;2.60;99.90;;;;;;5033208;28;20469;-72
2020/12/12 03:47:44;;;;;;;63.73;25.93;;;2.60;99.90;;;;;;5027273;28;20453;-72
2020/12/12 03:50:10;;;;;;;58.73;26.10;;;2.60;99.90;;;;;;5032774;28;20436;-72
2020/12/12 03:52:37;;;;;;;55.13;26.40;;;2.60;99.90;;;;;;5030977;28;21036;-72
2020/12/12 03:55:03;;;;;;;52.70;25.30;;;2.60;99.90;;;;;;5031824;28;20452;-72
2020/12/12 03:57:30;;;;;;;56.77;27.77;;;2.60;99.90;;;;;;5029947;28;20517;-75
2020/12/12 03:59:56;;;;;;;62.90;27.97;;;2.60;99.90;;;;;;5030414;28;20444;-72
2020/12/12 04:02:22;;;;;;;56.20;24.83;;;2.60;99.90;;;;;;5029982;28;20633;-72
2020/12/12 04:04:50;;;;;;;58.30;25.20;;;2.60;99.90;;;;;;5026929;28;20464;-72
2020/12/12 04:07:16;;;;;;;74.67;28.47;;;2.60;99.90;;;;;;5030494;28;20483;-72
2020/12/12 04:09:43;;;;;;;49.80;27.27;;;2.70;99.90;;;;;;5029195;28;20472;-71
2020/12/12 04:12:09;;;;;;;50.20;25.97;;;2.70;99.90;;;;;;5033138;28;20515;-73
2020/12/12 04:14:38;;;;;;;61.27;27.53;;;2.70;99.90;;;;;;5034163;28;20444;-73
2020/12/12 04:17:04;;;;;;;61.10;27.13;;;2.70;99.90;;;;;;5041480;28;20471;-72
2020/12/12 04:19:30;;;;;;;50.47;25.27;;;2.70;99.90;;;;;;5040789;28;20448;-71
2020/12/12 04:21:59;;;;;;;67.17;26.30;;;2.70;99.90;;;;;;5040834;28;20527;-71
2020/12/12 04:24:25;;;;;;;57.23;26.43;;;2.70;99.90;;;;;;5040919;28;20444;-73
2020/12/12 04:26:51;;;;;;;63.13;26.33;;;2.70;99.90;;;;;;5041305;28;20508;-72
2020/12/12 04:29:18;;;;;;;65.73;25.50;;;2.70;99.90;;;;;;5040455;28;20924;-69
2020/12/12 04:31:44;;;;;;;55.53;23.77;;;2.70;99.90;;;;;;5039899;28;20498;-72
2020/12/12 04:34:11;;;;;;;56.50;30.00;;;2.70;99.90;;;;;;5039874;28;20543;-72
2020/12/12 04:36:37;;;;;;;50.60;24.20;;;2.70;99.90;;;;;;5041440;28;20539;-72
2020/12/12 04:39:05;;;;;;;55.60;24.57;;;2.70;99.90;;;;;;5041707;28;20491;-72
2020/12/12 04:41:35;;;;;;;50.43;26.03;;;2.70;99.90;;;;;;5044210;28;20456;-71
2020/12/12 04:44:01;;;;;;;50.63;24.67;;;2.70;99.90;;;;;;5045962;28;20455;-73
2020/12/12 04:46:29;;;;;;;47.27;22.47;;;2.70;99.90;;;;;;5045391;28;20523;-72
2020/12/12 04:48:56;;;;;;;42.40;23.27;;;2.70;99.90;;;;;;5044994;28;20459;-72
2020/12/12 04:51:22;;;;;;;58.23;25.70;;;2.70;99.90;;;;;;5046097;28;20828;-72
2020/12/12 04:53:50;;;;;;;49.67;24.97;;;2.70;99.90;;;;;;5046281;28;20510;-72
2020/12/12 04:56:25;;;;;;;44.23;24.73;;;2.70;99.90;;;;;;5044993;28;20488;-73
2020/12/12 04:58:52;;;;;;;48.03;23.03;;;2.70;99.90;;;;;;5046651;28;20448;-71
2020/12/12 05:01:19;;;;;;;55.37;23.83;;;2.70;99.90;;;;;;5044654;28;20444;-71
2020/12/12 05:03:46;;;;;;;52.03;24.60;;;2.70;99.90;;;;;;5044119;28;20478;-72
2020/12/12 05:06:13;;;;;;;42.70;23.07;;;2.70;99.90;;;;;;5045081;28;20602;-71
2020/12/12 05:08:39;;;;;;;56.57;25.27;;;2.70;99.90;;;;;;5045854;28;20444;-73
2020/12/12 05:11:06;;;;;;;51.13;26.70;;;2.70;99.90;;;;;;5044992;28;20447;-72
2020/12/12 05:13:33;;;;;;;50.90;25.83;;;2.70;99.90;;;;;;5044435;28;20510;-72
2020/12/12 05:16:00;;;;;;;48.80;24.97;;;2.70;99.90;;;;;;5045144;28;20443;-72
2020/12/12 05:18:27;;;;;;;52.33;25.03;;;2.70;99.90;;;;;;5044250;28;20518;-72
2020/12/12 05:20:54;;;;;;;52.87;25.07;;;2.70;99.90;;;;;;5045518;28;20820;-72
2020/12/12 05:23:22;;;;;;;48.57;25.17;;;2.70;99.90;;;;;;5044457;28;20495;-72
2020/12/12 05:25:50;;;;;;;48.30;25.40;;;2.70;99.90;;;;;;5044736;28;20467;-73
2020/12/12 05:28:17;;;;;;;45.60;24.40;;;2.70;99.90;;;;;;5045151;28;20502;-72
2020/12/12 05:30:48;;;;;;;51.20;25.77;;;2.70;99.90;;;;;;5044560;28;20502;-72
2020/12/12 05:33:17;;;;;;;51.00;27.43;;;2.70;99.90;;;;;;5044640;28;21010;-72
2020/12/12 05:35:44;;;;;;;53.53;25.17;;;2.70;99.90;;;;;;5045070;28;20479;-72
2020/12/12 05:38:11;;;;;;;41.97;23.23;;;2.70;99.90;;;;;;5045209;28;20459;-72
2020/12/12 05:40:39;;;;;;;51.90;23.57;;;2.70;99.90;;;;;;5044735;28;20556;-72
2020/12/12 05:43:06;;;;;;;46.60;23.53;;;2.70;99.90;;;;;;5045071;28;20947;-71
2020/12/12 05:45:34;;;;;;;63.37;27.47;;;2.70;99.90;;;;;;5044528;28;20452;-71
2020/12/12 05:48:03;;;;;;;50.73;25.50;;;2.70;99.90;;;;;;5044427;28;20475;-72
2020/12/12 05:50:29;;;;;;;57.87;24.80;;;2.70;99.90;;;;;;5044856;28;20808;-73
2020/12/12 05:52:56;;;;;;;51.30;26.33;;;2.70;99.90;;;;;;5042754;28;20579;-72
2020/12/12 05:55:26;;;;;;;47.80;23.13;;;2.70;99.90;;;;;;5043682;28;20444;-72
2020/12/12 05:57:53;;;;;;;44.67;25.57;;;2.70;99.90;;;;;;5043590;28;20487;-72
2020/12/12 06:00:21;;;;;;;56.53;28.10;;;2.70;99.90;;;;;;5043048;28;20471;-71
2020/12/12 06:02:54;;;;;;;51.70;25.30;;;2.70;99.90;;;;;;5043694;28;20480;-73
2020/12/12 06:05:25;;;;;;;44.83;24.10;;;2.80;99.90;;;;;;5043900;28;20436;-71
2020/12/12 06:07:55;;;;;;;53.90;27.47;;;2.70;99.90;;;;;;5043598;28;20471;-72
2020/12/12 06:10:26;;;;;;;51.70;25.43;;;2.80;99.90;;;;;;5043295;28;20500;-73
2020/12/12 06:12:58;;;;;;;59.00;26.60;;;2.80;99.90;;;;;;5043805;28;20542;-72
2020/12/12 06:15:38;;;;;;;55.67;26.50;;;2.80;99.90;;;;;;5043956;28;20448;-72
2020/12/12 06:18:22;;;;;;;53.00;26.00;;;2.70;99.90;;;;;;5044092;28;20472;-72
2020/12/12 06:20:52;;;;;;;49.83;24.57;;;2.70;99.90;;;;;;5044518;28;20479;-72
2020/12/12 06:23:18;;;;;;;48.40;23.77;;;2.80;99.90;;;;;;5043712;28;20468;-71
2020/12/12 06:25:45;;;;;;;41.67;24.60;;;2.70;99.90;;;;;;5042353;28;20475;-72
2020/12/12 06:28:18;;;;;;;49.13;26.30;;;2.80;99.90;;;;;;5043411;28;20506;-73
2020/12/12 06:30:45;;;;;;;53.10;25.77;;;2.70;99.90;;;;;;5043477;28;20511;-72
2020/12/12 06:33:12;;;;;;;50.93;27.83;;;2.70;99.90;;;;;;5042746;28;20964;-71
2020/12/12 06:35:39;;;;;;;42.43;25.13;;;2.70;99.90;;;;;;5043953;28;20448;-72
2020/12/12 06:38:25;;;;;;;40.00;24.40;;;2.80;99.90;;;;;;5044350;28;20487;-73
2020/12/12 06:40:54;;;;;;;52.93;25.60;;;2.80;99.90;;;;;;5043134;28;20413;-73
2020/12/12 06:43:31;;;;;;;50.60;24.50;;;2.70;99.90;;;;;;5043165;28;20452;-73
2020/12/12 06:46:00;;;;;;;49.93;24.70;;;2.70;99.90;;;;;;5043850;28;20451;-72
2020/12/12 06:48:28;;;;;;;48.27;23.93;;;2.70;99.90;;;;;;5042964;28;20448;-74
2020/12/12 06:50:55;;;;;;;48.60;24.87;;;2.80;99.90;;;;;;5043284;28;20437;-72
2020/12/12 06:53:24;;;;;;;43.83;24.00;;;2.70;99.90;;;;;;5042534;28;20490;-72
2020/12/12 06:56:10;;;;;;;48.97;25.77;;;2.80;99.90;;;;;;5043586;28;20498;-73
2020/12/12 06:58:37;;;;;;;45.13;23.00;;;2.70;99.90;;;;;;5043263;28;20459;-72
2020/12/12 07:01:26;;;;;;;42.80;23.50;;;2.70;99.90;;;;;;5042495;28;20471;-72
2020/12/12 07:03:57;;;;;;;40.77;23.60;;;2.70;99.90;;;;;;5042123;28;20479;-73
2020/12/12 07:06:27;;;;;;;49.20;24.47;;;2.70;99.90;;;;;;5043220;28;20459;-73
2020/12/12 07:09:00;;;;;;;47.53;27.10;;;2.70;99.90;;;;;;5043532;28;20468;-73
2020/12/12 07:11:27;;;;;;;50.70;25.93;;;2.70;99.90;;;;;;5042248;28;20548;-73
2020/12/12 07:13:54;;;;;;;44.23;24.33;;;2.60;99.90;;;;;;5041752;28;20613;-74
2020/12/12 07:16:21;;;;;;;51.10;26.07;;;2.70;99.90;;;;;;5042631;28;20444;-73
2020/12/12 07:18:49;;;;;;;56.37;26.23;;;2.60;99.90;;;;;;5042732;28;20475;-72
2020/12/12 07:21:16;;;;;;;57.30;27.50;;;2.60;99.90;;;;;;5041630;28;20455;-72
2020/12/12 07:23:42;;;;;;;51.20;23.80;;;2.60;99.90;;;;;;5041433;28;20486;-74
2020/12/12 07:26:09;;;;;;;48.30;27.20;;;2.60;99.90;;;;;;5042465;28;20475;-74
2020/12/12 07:28:36;;;;;;;56.97;25.93;;;2.60;99.90;;;;;;5042219;28;20479;-73
2020/12/12 07:31:03;;;;;;;57.17;27.87;;;2.60;99.90;;;;;;5042839;28;20591;-73
2020/12/12 07:33:29;;;;;;;52.93;25.83;;;2.60;99.90;;;;;;5042584;28;20524;-74
2020/12/12 07:35:56;;;;;;;58.77;28.90;;;2.60;99.90;;;;;;5042907;28;20473;-72
2020/12/12 07:38:25;;;;;;;44.70;28.80;;;2.60;99.90;;;;;;5037535;28;20662;-73
2020/12/12 07:40:52;;;;;;;53.17;27.67;;;2.60;99.90;;;;;;5036650;28;20483;-73
2020/12/12 07:43:19;;;;;;;52.90;26.17;;;2.60;99.90;;;;;;5036535;28;20519;-72
2020/12/12 07:45:56;;;;;;;59.63;28.30;;;2.70;99.90;;;;;;5036127;28;20531;-72
2020/12/12 07:48:22;;;;;;;58.23;29.10;;;2.60;99.90;;;;;;5036879;28;20440;-73
2020/12/12 07:50:49;;;;;;;51.17;25.17;;;2.60;99.90;;;;;;5037335;28;20452;-72
2020/12/12 07:53:18;;;;;;;59.97;29.23;;;2.60;99.90;;;;;;5041297;28;20992;-73
2020/12/12 07:55:53;;;;;;;50.60;25.10;;;2.70;99.90;;;;;;5038254;28;20517;-72
2020/12/12 07:58:23;;;;;;;55.50;27.63;;;2.70;99.90;;;;;;5037409;28;20447;-72
2020/12/12 08:01:05;;;;;;;51.53;25.07;;;2.80;99.90;;;;;;5040794;28;20428;-72
2020/12/12 08:03:32;;;;;;;57.20;30.63;;;2.80;99.90;;;;;;5042428;28;20751;-72
2020/12/12 08:06:06;;;;;;;70.13;26.80;;;2.80;99.90;;;;;;5040754;28;20454;-73
2020/12/12 08:08:33;;;;;;;58.07;29.63;;;2.70;99.90;;;;;;5040581;28;20459;-72
2020/12/12 08:11:00;;;;;;;48.23;27.47;;;2.80;99.90;;;;;;5040461;28;20472;-71
2020/12/12 08:13:32;;;;;;;59.50;27.67;;;2.80;99.90;;;;;;5039484;28;20526;-72
2020/12/12 08:16:02;;;;;;;45.60;26.53;;;2.90;99.90;;;;;;5040004;28;20452;-72
2020/12/12 08:18:30;;;;;;;50.83;27.40;;;2.90;99.90;;;;;;5040741;28;20475;-72
2020/12/12 08:21:09;;;;;;;56.30;27.90;;;2.90;99.90;;;;;;5040676;28;20486;-73
2020/12/12 08:23:37;;;;;;;62.57;28.50;;;2.90;99.90;;;;;;5028716;28;20440;-72
2020/12/12 08:26:04;;;;;;;55.73;28.57;;;3.00;99.90;;;;;;5040644;28;20487;-72
2020/12/12 08:28:34;;;;;;;60.97;32.63;;;3.00;99.90;;;;;;5041706;28;20468;-73
2020/12/12 08:31:15;;;;;;;62.27;30.00;;;3.00;99.90;;;;;;5041038;28;20503;-72
2020/12/12 08:33:43;;;;;;;59.20;28.83;;;3.00;99.90;;;;;;5042132;28;20515;-72
2020/12/12 08:36:17;;;;;;;60.20;27.20;;;3.00;99.90;;;;;;5041241;28;20440;-71
2020/12/12 08:38:51;;;;;;;58.07;30.17;;;3.00;99.90;;;;;;5041168;28;20444;-72
2020/12/12 08:41:17;;;;;;;63.17;29.10;;;3.00;99.90;;;;;;5040199;28;20834;-72
2020/12/12 08:43:45;;;;;;;55.40;28.00;;;3.00;99.90;;;;;;5040410;28;20841;-71
2020/12/12 08:46:14;;;;;;;56.40;28.17;;;3.00;99.90;;;;;;5042262;28;20448;-68
2020/12/12 08:48:40;;;;;;;55.80;29.67;;;3.00;99.90;;;;;;5043036;28;20462;-67
2020/12/12 08:51:08;;;;;;;60.53;27.60;;;3.00;99.90;;;;;;5044338;28;20456;-68
2020/12/12 08:53:36;;;;;;;59.80;30.27;;;3.10;99.90;;;;;;5044008;28;20487;-67
2020/12/12 08:56:13;;;;;;;55.70;28.87;;;3.10;99.90;;;;;;5043707;28;20448;-67
2020/12/12 08:58:48;;;;;;;56.23;30.43;;;3.20;99.90;;;;;;5043084;28;20432;-67
2020/12/12 09:01:18;;;;;;;68.70;32.00;;;3.20;99.90;;;;;;5041923;28;20440;-69
2020/12/12 09:03:55;;;;;;;59.23;29.37;;;3.30;99.90;;;;;;5040786;28;20491;-68
2020/12/12 09:06:22;;;;;;;63.30;28.30;;;3.30;99.90;;;;;;5042446;28;20574;-67
2020/12/12 09:09:01;;;;;;;57.47;29.50;;;3.40;99.90;;;;;;5042910;28;20486;-68
2020/12/12 09:11:30;;;;;;;55.03;30.60;;;3.30;99.90;;;;;;5042706;28;20889;-68
2020/12/12 09:13:57;;;;;;;55.57;28.07;;;3.20;99.90;;;;;;5043113;28;20480;-66
2020/12/12 09:16:25;;;;;;;59.03;28.87;;;3.30;99.90;;;;;;5040728;28;20448;-67
2020/12/12 09:18:52;;;;;;;56.10;28.03;;;3.30;99.90;;;;;;5035362;28;20440;-69
2020/12/12 09:21:18;;;;;;;56.93;29.30;;;3.30;99.90;;;;;;5035109;28;20428;-69
2020/12/12 09:23:45;;;;;;;72.37;32.27;;;3.30;99.90;;;;;;5042618;28;20447;-68
2020/12/12 09:26:11;;;;;;;61.27;30.90;;;3.30;99.90;;;;;;5032441;28;20469;-70
2020/12/12 09:28:38;;;;;;;58.10;29.17;;;3.30;99.90;;;;;;5039785;28;20471;-70
2020/12/12 09:31:07;;;;;;;56.57;28.10;;;3.30;99.90;;;;;;5037349;28;20469;-69
2020/12/12 09:33:34;;;;;;;58.13;32.23;;;3.30;99.90;;;;;;5028404;28;20515;-70
2020/12/12 09:36:04;;;;;;;72.07;30.20;;;3.20;99.90;;;;;;5040382;28;20518;-70
2020/12/12 09:38:30;;;;;;;61.10;28.17;;;3.20;99.90;;;;;;5030393;28;20460;-70
2020/12/12 09:41:00;;;;;;;75.80;32.50;;;3.20;99.90;;;;;;5026923;28;20440;-71
2020/12/12 09:43:26;;;;;;;67.97;33.83;;;3.30;99.90;;;;;;5034538;28;20536;-71
2020/12/12 09:45:53;;;;;;;68.43;30.67;;;3.30;99.90;;;;;;5039295;28;20540;-71
2020/12/12 09:48:22;;;;;;;59.40;31.47;;;3.30;99.90;;;;;;5034361;28;20480;-72
2020/12/12 09:50:49;;;;;;;68.77;31.70;;;3.40;99.90;;;;;;5031419;28;20445;-72
2020/12/12 09:53:15;;;;;;;55.20;28.37;;;3.50;99.90;;;;;;5025901;28;20801;-71
2020/12/12 09:55:42;;;;;;;55.70;27.80;;;3.60;99.90;;;;;;5030413;28;20979;-71
2020/12/12 09:58:08;;;;;;;52.67;27.00;;;3.60;99.90;;;;;;5033729;28;20450;-74
2020/12/12 10:00:36;;;;;;;58.37;30.77;;;3.60;99.90;;;;;;5031123;28;20461;-72
2020/12/12 10:03:02;;;;;;;74.83;31.50;;;3.60;99.90;;;;;;5040961;28;20752;-73
2020/12/12 10:05:30;;;;;;;61.23;30.17;;;3.60;99.90;;;;;;5033321;28;20495;-72
2020/12/12 10:07:56;;;;;;;53.43;24.50;;;3.60;99.90;;;;;;5034888;28;21033;-73
2020/12/12 10:10:24;;;;;;;57.30;27.10;;;3.60;99.90;;;;;;5035881;28;20809;-73
2020/12/12 10:12:51;;;;;;;62.23;30.90;;;3.60;99.90;;;;;;5029816;28;20465;-72
2020/12/12 10:15:18;;;;;;;59.03;27.50;;;3.70;99.90;;;;;;5033737;28;20500;-77
2020/12/12 10:17:44;;;;;;;58.93;29.27;;;3.70;99.90;;;;;;5028342;28;20475;-69
2020/12/12 10:20:11;;;;;;;58.10;28.50;;;3.70;99.90;;;;;;5030371;28;20511;-75
2020/12/12 10:22:39;;;;;;;52.13;29.33;;;3.80;99.90;;;;;;5025714;28;20437;-74
2020/12/12 10:25:06;;;;;;;57.40;27.87;;;3.90;99.90;;;;;;5029067;28;20535;-71
2020/12/12 10:27:33;;;;;;;61.93;27.40;;;4.00;99.90;;;;;;5028984;28;20452;-74
2020/12/12 10:29:59;;;;;;;65.03;27.87;;;4.10;99.90;;;;;;5026311;28;20556;-77
2020/12/12 10:32:26;;;;;;;61.90;28.03;;;4.10;99.90;;;;;;5023785;28;20453;-74
2020/12/12 10:34:52;;;;;;;59.87;28.10;;;4.20;99.90;;;;;;5025255;28;20573;-70
2020/12/12 10:37:19;;;;;;;66.90;30.63;;;4.30;99.90;;;;;;5027193;28;20904;-70
2020/12/12 10:39:52;;;;;;;59.10;28.50;;;4.40;99.90;;;;;;5028657;28;20561;-72
2020/12/12 10:42:18;;;;;;;51.90;27.23;;;4.50;99.90;;;;;;5020056;28;20473;-70
2020/12/12 10:44:45;;;;;;;65.57;32.83;;;4.60;99.90;;;;;;5024992;28;20520;-71
2020/12/12 10:47:12;;;;;;;61.30;31.77;;;4.70;99.90;;;;;;5029126;28;20475;-70
2020/12/12 10:49:38;;;;;;;57.90;29.43;;;4.70;99.90;;;;;;5026704;28;20430;-70
2020/12/12 10:52:06;;;;;;;64.03;28.07;;;4.80;99.90;;;;;;5027413;28;20440;-70
2020/12/12 10:54:33;;;;;;;58.63;30.10;;;4.80;99.90;;;;;;5030217;28;20503;-74
2020/12/12 10:57:00;;;;;;;60.47;31.50;;;4.90;99.90;;;;;;5026124;28;20457;-73
2020/12/12 10:59:27;;;;;;;55.90;28.17;;;4.90;99.90;;;;;;5030450;28;20437;-73
2020/12/12 11:01:55;;;;;;;60.40;29.00;;;5.00;99.90;;;;;;5024845;28;20500;-73
2020/12/12 11:04:22;;;;;;;56.27;26.97;;;5.00;99.90;;;;;;5030508;28;20894;-73
2020/12/12 11:06:48;;;;;;;52.87;29.67;;;5.00;99.90;;;;;;5028525;28;20476;-73
2020/12/12 11:09:15;;;;;;;55.57;26.47;;;5.00;99.90;;;;;;5028764;28;20524;-71
2020/12/12 11:11:42;;;;;;;49.73;26.03;;;5.10;99.90;;;;;;5029209;28;20444;-73
2020/12/12 11:14:09;;;;;;;57.03;29.43;;;5.10;99.90;;;;;;5030089;28;20551;-74
2020/12/12 11:16:36;;;;;;;48.93;26.53;;;5.00;99.90;;;;;;5034527;28;20448;-76
2020/12/12 11:19:06;;;;;;;53.17;26.57;;;5.00;99.90;;;;;;5029576;28;20491;-77
2020/12/12 11:21:33;;;;;;;55.97;27.60;;;5.00;99.90;;;;;;5028103;28;20445;-76
2020/12/12 11:23:59;;;;;;;52.23;26.27;;;5.00;99.90;;;;;;5023425;28;20429;-77
2020/12/12 11:26:26;;;;;;;53.63;28.30;;;5.10;99.90;;;;;;5022783;28;20531;-76
2020/12/12 11:28:53;;;;;;;51.10;27.53;;;5.10;99.90;;;;;;5024641;28;20533;-75
2020/12/12 11:31:23;;;;;;;55.83;27.33;;;5.20;99.90;;;;;;5021300;28;20465;-74
2020/12/12 11:33:56;;;;;;;54.80;26.63;;;5.20;99.90;;;;;;5027843;28;20472;-73
2020/12/12 11:36:37;;;;;;;56.17;26.13;;;5.20;99.90;;;;;;5027786;28;20437;-75
2020/12/12 11:39:08;;;;;;;57.33;26.10;;;5.20;99.90;;;;;;5027871;28;20437;-74
2020/12/12 11:41:55;;;;;;;48.30;25.83;;;5.20;99.90;;;;;;5026932;28;20446;-76
2020/12/12 11:44:44;;;;;;;58.73;29.30;;;5.10;99.90;;;;;;5024232;28;21123;-77
2020/12/12 11:47:11;;;;;;;55.00;27.23;;;5.10;99.90;;;;;;5022102;28;20437;-68
2020/12/12 11:49:38;;;;;;;54.07;28.57;;;5.00;99.90;;;;;;5019869;28;20449;-69
2020/12/12 11:52:05;;;;;;;51.67;26.53;;;5.00;99.90;;;;;;5022865;28;20524;-68
2020/12/12 11:54:31;;;;;;;47.47;24.30;;;5.00;99.90;;;;;;5023537;28;20557;-72
2020/12/12 11:56:57;;;;;;;44.33;23.83;;;5.00;99.90;;;;;;5024548;28;20481;-71
2020/12/12 11:59:24;;;;;;;52.53;26.73;;;5.00;99.90;;;;;;5020458;28;20511;-74
2020/12/12 12:01:51;;;;;;;55.17;25.57;;;5.00;99.90;;;;;;5023275;28;20445;-74
2020/12/12 12:04:18;;;;;;;50.87;25.20;;;5.00;99.90;;;;;;5020681;28;20958;-79
2020/12/12 12:06:45;;;;;;;49.53;26.40;;;5.00;99.90;;;;;;5024078;28;20456;-78
2020/12/12 12:09:20;;;;;;;58.40;24.53;;;5.00;99.90;;;;;;5024600;28;20469;-78
2020/12/12 12:11:50;;;;;;;49.23;25.13;;;5.00;99.90;;;;;;5026455;28;20441;-68
2020/12/12 12:14:17;;;;;;;52.30;26.73;;;5.00;99.90;;;;;;5021958;28;20550;-69
2020/12/12 12:16:43;;;;;;;53.67;25.37;;;5.00;99.90;;;;;;5024353;28;20772;-72
2020/12/12 12:19:11;;;;;;;52.50;27.03;;;5.00;99.90;;;;;;5022674;28;20452;-76
2020/12/12 12:21:39;;;;;;;51.90;28.00;;;4.90;99.90;;;;;;5022503;28;20425;-75
2020/12/12 12:24:07;;;;;;;50.17;25.53;;;5.00;99.90;;;;;;5018769;28;20469;-70
2020/12/12 12:26:35;;;;;;;59.50;25.83;;;5.00;99.90;;;;;;5029131;28;20480;-70
2020/12/12 12:29:02;;;;;;;49.80;23.50;;;5.00;99.90;;;;;;5022743;28;20448;-69
2020/12/12 12:31:28;;;;;;;62.67;26.90;;;5.00;99.90;;;;;;5025500;28;20936;-70
2020/12/12 12:33:55;;;;;;;58.30;29.17;;;5.00;99.90;;;;;;5024551;28;20480;-70
2020/12/12 12:36:28;;;;;;;56.00;26.23;;;5.00;99.90;;;;;;5024073;28;20825;-73
2020/12/12 12:38:57;;;;;;;51.23;26.37;;;5.00;99.90;;;;;;5025657;28;20861;-71
2020/12/12 12:41:24;;;;;;;52.10;25.77;;;5.00;99.90;;;;;;5023860;28;20440;-73